Time,TemperatureF,DewpointF,PressureIn,WindDirection,WindDirectionDegrees,WindSpeedMPH,WindSpeedGustMPH,Humidity,HourlyPrecipIn,Conditions,Clouds,dailyrainin,SolarRadiationWatts/m^2,SoftwareType,DateUTC
2013-01-02 00:04:00,37.5,35.7,30.03,NW,313,0.0,2.0,93,0.00,,,0.00,0,WeatherCatV1.11B39,2013-01-02 00:04:00,
2013-01-02 00:09:00,37.6,35.8,30.03,NW,313,0.0,3.0,93,0.00,,,0.00,0,WeatherCatV1.11B39,2013-01-02 00:09:00,
2013-01-02 00:14:00,37.7,36.1,30.04,NW,313,1.0,2.0,94,0.00,,,0.00,0,WeatherCatV1.11B39,2013-01-02 00:14:00,
2013-01-02 00:19:00,37.8,36.2,30.04,NW,313,0.0,2.0,94,0.00,,,0.00,0,WeatherCatV1.11B39,2013-01-02 00:19:00,
2013-01-02 00:24:00,37.8,36.2,30.04,NW,313,2.0,3.0,94,0.00,,,0.00,0,WeatherCatV1.11B39,2013-01-02 00:24:00,
2013-01-02 00:29:00,37.9,36.3,30.04,NW,313,0.0,1.0,94,0.00,,,0.00,0,WeatherCatV1.11B39,2013-01-02 00:29:00,
2013-01-02 00:34:00,38.0,36.4,30.04,NW,313,1.0,2.0,94,0.00,,,0.00,0,WeatherCatV1.11B39,2013-01-02 00:34:00,
2013-01-02 00:39:00,38.1,36.3,30.05,NW,313,0.0,1.0,93,0.00,,,0.00,0,WeatherCatV1.11B39,2013-01-02 00:39:00,
2013-01-02 00:44:00,38.1,36.3,30.05,NW,313,0.0,2.0,93,0.00,,,0.00,0,WeatherCatV1.11B39,2013-01-02 00:44:00,
2013-01-02 00:49:00,38.1,36.3,30.05,NW,313,0.0,0.0,93,0.00,,,0.00,0,WeatherCatV1.11B39,2013-01-02 00:49:00,
2013-01-02 00:54:00,38.2,36.4,30.05,NW,313,0.0,1.0,93,0.00,,,0.00,0,WeatherCatV1.11B39,2013-01-02 00:54:00,
2013-01-02 00:59:00,38.3,36.5,30.06,NW,313,0.0,0.0,93,0.00,,,0.00,0,WeatherCatV1.11B39,2013-01-02 00:59:00,
2013-01-02 01:04:00,38.3,36.5,30.06,NW,313,0.0,0.0,93,0.00,,,0.00,0,WeatherCatV1.11B39,2013-01-02 01:04:00,
2013-01-02 01:09:00,38.2,36.4,30.06,NW,313,0.0,1.0,93,0.00,,,0.00,0,WeatherCatV1.11B39,2013-01-02 01:09:00,
2013-01-02 01:14:00,38.2,36.4,30.06,NW,313,2.0,2.0,93,0.00,,,0.00,0,WeatherCatV1.11B39,2013-01-02 01:14:00,
2013-01-02 01:19:00,38.0,36.2,30.06,NW,313,0.0,1.0,93,0.00,,,0.00,0,WeatherCatV1.11B39,2013-01-02 01:19:00,
2013-01-02 01:24:00,37.8,36.0,30.06,NW,313,0.0,0.0,93,0.00,,,0.00,0,WeatherCatV1.11B39,2013-01-02 01:24:00,
2013-01-02 01:29:00,37.5,35.7,30.06,NW,313,0.0,0.0,93,0.00,,,0.00,0,WeatherCatV1.11B39,2013-01-02 01:29:00,
2013-01-02 01:34:00,37.3,35.5,30.07,NW,313,0.0,0.0,93,0.00,,,0.00,0,WeatherCatV1.11B39,2013-01-02 01:34:00,
2013-01-02 01:39:00,37.0,35.2,30.07,NW,313,0.0,0.0,93,0.00,,,0.00,0,WeatherCatV1.11B39,2013-01-02 01:39:00,
2013-01-02 01:44:00,36.7,34.9,30.07,NW,313,2.0,2.0,93,0.00,,,0.00,0,WeatherCatV1.11B39,2013-01-02 01:44:00,
2013-01-02 01:49:00,36.5,34.9,30.07,NW,313,1.0,1.0,94,0.00,,,0.00,0,WeatherCatV1.11B39,2013-01-02 01:49:00,
2013-01-02 01:54:00,36.4,34.8,30.07,NW,313,0.0,0.0,94,0.00,,,0.00,0,WeatherCatV1.11B39,2013-01-02 01:54:00,
2013-01-02 01:59:00,36.3,34.7,30.08,NW,313,0.0,0.0,94,0.00,,,0.00,0,WeatherCatV1.11B39,2013-01-02 01:59:00,
2013-01-02 02:04:00,36.3,34.7,30.09,NW,313,0.0,0.0,94,0.00,,,0.00,0,WeatherCatV1.11B39,2013-01-02 02:04:00,
2013-01-02 02:09:00,36.2,34.6,30.09,NW,313,0.0,0.0,94,0.00,,,0.00,0,WeatherCatV1.11B39,2013-01-02 02:09:00,
2013-01-02 02:14:00,36.1,34.8,30.09,NW,313,0.0,0.0,95,0.00,,,0.00,0,WeatherCatV1.11B39,2013-01-02 02:14:00,
2013-01-02 02:19:00,36.0,34.7,30.09,NW,313,1.0,2.0,95,0.00,,,0.00,0,WeatherCatV1.11B39,2013-01-02 02:19:00,
2013-01-02 02:24:00,36.1,34.8,30.09,NW,313,0.0,2.0,95,0.00,,,0.00,0,WeatherCatV1.11B39,2013-01-02 02:24:00,
2013-01-02 02:29:00,36.0,34.7,30.10,NW,313,0.0,0.0,95,0.00,,,0.00,0,WeatherCatV1.11B39,2013-01-02 02:29:00,
2013-01-02 02:34:00,35.9,34.6,30.10,NW,313,0.0,0.0,95,0.00,,,0.00,0,WeatherCatV1.11B39,2013-01-02 02:34:00,
2013-01-02 02:39:00,35.9,34.6,30.10,NW,313,0.0,0.0,95,0.00,,,0.00,0,WeatherCatV1.11B39,2013-01-02 02:39:00,
2013-01-02 02:44:00,35.8,34.5,30.10,NW,313,0.0,0.0,95,0.00,,,0.00,0,WeatherCatV1.11B39,2013-01-02 02:44:00,
2013-01-02 02:49:00,35.8,34.5,30.10,NW,313,0.0,0.0,95,0.00,,,0.00,0,WeatherCatV1.11B39,2013-01-02 02:49:00,
2013-01-02 02:54:00,35.8,34.5,30.10,NW,313,0.0,0.0,95,0.00,,,0.00,0,WeatherCatV1.11B39,2013-01-02 02:54:00,
2013-01-02 02:59:00,35.8,34.5,30.10,NW,313,0.0,1.0,95,0.00,,,0.00,0,WeatherCatV1.11B39,2013-01-02 02:59:00,
2013-01-02 03:04:00,35.9,34.9,30.11,NW,313,0.0,0.0,96,0.00,,,0.00,0,WeatherCatV1.11B39,2013-01-02 03:04:00,
2013-01-02 03:09:00,36.0,35.0,30.11,NW,313,0.0,0.0,96,0.00,,,0.00,0,WeatherCatV1.11B39,2013-01-02 03:09:00,
2013-01-02 03:14:00,36.1,35.1,30.11,NW,313,0.0,0.0,96,0.00,,,0.00,0,WeatherCatV1.11B39,2013-01-02 03:14:00,
2013-01-02 03:19:00,36.0,35.0,30.11,NW,313,0.0,0.0,96,0.00,,,0.00,0,WeatherCatV1.11B39,2013-01-02 03:19:00,
2013-01-02 03:24:00,35.9,34.9,30.11,NW,313,0.0,1.0,96,0.00,,,0.00,0,WeatherCatV1.11B39,2013-01-02 03:24:00,
2013-01-02 03:29:00,35.9,34.9,30.11,NW,313,0.0,0.0,96,0.00,,,0.00,0,WeatherCatV1.11B39,2013-01-02 03:29:00,
2013-01-02 03:34:00,36.0,35.0,30.11,NW,313,0.0,1.0,96,0.00,,,0.00,0,WeatherCatV1.11B39,2013-01-02 03:34:00,
2013-01-02 03:39:00,36.1,35.1,30.11,NW,313,0.0,0.0,96,0.00,,,0.00,0,WeatherCatV1.11B39,2013-01-02 03:39:00,
2013-01-02 03:44:00,36.2,35.2,30.11,NW,313,0.0,0.0,96,0.00,,,0.00,0,WeatherCatV1.11B39,2013-01-02 03:44:00,
2013-01-02 03:49:00,36.2,35.2,30.12,NW,313,0.0,0.0,96,0.00,,,0.00,0,WeatherCatV1.11B39,2013-01-02 03:49:00,
2013-01-02 03:54:00,36.2,35.2,30.12,NW,313,1.0,1.0,96,0.00,,,0.00,0,WeatherCatV1.11B39,2013-01-02 03:54:00,
2013-01-02 03:59:00,36.3,35.3,30.12,NW,313,0.0,0.0,96,0.00,,,0.00,0,WeatherCatV1.11B39,2013-01-02 03:59:00,
2013-01-02 04:04:00,36.4,35.4,30.12,NW,313,0.0,0.0,96,0.00,,,0.00,0,WeatherCatV1.11B39,2013-01-02 04:04:00,
2013-01-02 04:09:00,36.5,35.7,30.13,NW,313,0.0,0.0,97,0.00,,,0.00,0,WeatherCatV1.11B39,2013-01-02 04:09:00,
2013-01-02 04:14:00,36.6,35.8,30.13,NW,313,0.0,0.0,97,0.00,,,0.00,0,WeatherCatV1.11B39,2013-01-02 04:14:00,
2013-01-02 04:19:00,36.8,35.8,30.13,NW,313,0.0,0.0,96,0.00,,,0.00,0,WeatherCatV1.11B39,2013-01-02 04:19:00,
2013-01-02 04:24:00,36.8,35.8,30.13,NW,313,0.0,0.0,96,0.00,,,0.00,0,WeatherCatV1.11B39,2013-01-02 04:24:00,
2013-01-02 04:29:00,36.7,35.7,30.14,NW,313,0.0,0.0,96,0.00,,,0.00,0,WeatherCatV1.11B39,2013-01-02 04:29:00,
2013-01-02 04:34:00,36.6,35.6,30.14,NW,313,0.0,0.0,96,0.00,,,0.00,0,WeatherCatV1.11B39,2013-01-02 04:34:00,
2013-01-02 04:39:00,36.6,35.6,30.14,NW,313,0.0,0.0,96,0.00,,,0.00,0,WeatherCatV1.11B39,2013-01-02 04:39:00,
2013-01-02 04:44:00,36.4,35.4,30.14,NW,313,0.0,0.0,96,0.00,,,0.00,0,WeatherCatV1.11B39,2013-01-02 04:44:00,
2013-01-02 04:49:00,36.4,35.6,30.14,NW,313,0.0,0.0,97,0.00,,,0.00,0,WeatherCatV1.11B39,2013-01-02 04:49:00,
2013-01-02 04:54:00,36.4,35.6,30.14,NW,313,0.0,0.0,97,0.00,,,0.00,0,WeatherCatV1.11B39,2013-01-02 04:54:00,
2013-01-02 04:59:00,36.5,35.5,30.15,NW,313,0.0,0.0,96,0.00,,,0.00,0,WeatherCatV1.11B39,2013-01-02 04:59:00,
2013-01-02 05:00:00,36.5,35.5,30.15,NW,313,0.0,0.0,96,0.00,,,0.00,0,WeatherCatV1.11B39,2013-01-02 05:00:00,
2013-01-02 05:05:00,36.5,35.5,30.15,NW,313,0.0,0.0,96,0.00,,,0.00,0,WeatherCatV1.11B39,2013-01-02 05:05:00,
2013-01-02 05:10:00,36.5,35.5,30.15,NW,313,0.0,0.0,96,0.00,,,0.00,0,WeatherCatV1.11B39,2013-01-02 05:10:00,
2013-01-02 05:15:00,36.6,35.8,30.15,NW,313,0.0,1.0,97,0.00,,,0.00,0,WeatherCatV1.11B39,2013-01-02 05:15:00,
2013-01-02 05:20:00,36.8,36.0,30.15,NW,313,0.0,1.0,97,0.00,,,0.00,0,WeatherCatV1.11B39,2013-01-02 05:20:00,
2013-01-02 05:25:00,36.8,36.0,30.15,NW,313,0.0,0.0,97,0.00,,,0.00,0,WeatherCatV1.11B39,2013-01-02 05:25:00,
2013-01-02 05:30:00,36.8,36.0,30.16,NW,313,0.0,0.0,97,0.00,,,0.00,0,WeatherCatV1.11B39,2013-01-02 05:30:00,
2013-01-02 05:35:00,36.8,36.0,30.16,NW,313,0.0,0.0,97,0.00,,,0.00,0,WeatherCatV1.11B39,2013-01-02 05:35:00,
2013-01-02 05:40:00,36.8,36.0,30.16,NW,313,0.0,0.0,97,0.00,,,0.00,0,WeatherCatV1.11B39,2013-01-02 05:40:00,
2013-01-02 05:45:00,36.9,36.1,30.16,NW,313,0.0,1.0,97,0.00,,,0.00,0,WeatherCatV1.11B39,2013-01-02 05:45:00,
2013-01-02 05:50:00,37.0,36.2,30.16,NW,313,0.0,1.0,97,0.00,,,0.00,0,WeatherCatV1.11B39,2013-01-02 05:50:00,
2013-01-02 05:55:00,37.1,36.3,30.16,NW,313,0.0,0.0,97,0.00,,,0.00,0,WeatherCatV1.11B39,2013-01-02 05:55:00,
2013-01-02 06:00:00,37.2,36.4,30.16,NW,313,0.0,0.0,97,0.00,,,0.00,0,WeatherCatV1.11B39,2013-01-02 06:00:00,
2013-01-02 06:05:00,37.4,36.6,30.16,NW,313,0.0,0.0,97,0.00,,,0.00,0,WeatherCatV1.11B39,2013-01-02 06:05:00,
2013-01-02 06:10:00,37.6,36.8,30.17,NW,313,0.0,0.0,97,0.00,,,0.00,0,WeatherCatV1.11B39,2013-01-02 06:10:00,
2013-01-02 06:15:00,37.8,37.0,30.16,NW,313,0.0,0.0,97,0.00,,,0.00,0,WeatherCatV1.11B39,2013-01-02 06:15:00,
2013-01-02 06:20:00,37.9,37.1,30.17,NW,313,0.0,0.0,97,0.00,,,0.00,0,WeatherCatV1.11B39,2013-01-02 06:20:00,
2013-01-02 06:25:00,38.1,37.3,30.17,NW,313,1.0,1.0,97,0.00,,,0.00,0,WeatherCatV1.11B39,2013-01-02 06:25:00,
2013-01-02 06:30:00,38.1,37.3,30.17,NW,313,0.0,2.0,97,0.00,,,0.00,0,WeatherCatV1.11B39,2013-01-02 06:30:00,
2013-01-02 06:35:00,38.1,37.3,30.17,NW,313,1.0,1.0,97,0.00,,,0.00,0,WeatherCatV1.11B39,2013-01-02 06:35:00,
2013-01-02 06:40:00,38.0,37.2,30.18,NW,313,0.0,0.0,97,0.00,,,0.00,0,WeatherCatV1.11B39,2013-01-02 06:40:00,
2013-01-02 06:45:00,38.0,37.2,30.18,NW,313,0.0,1.0,97,0.00,,,0.00,0,WeatherCatV1.11B39,2013-01-02 06:45:00,
2013-01-02 06:50:00,37.9,37.1,30.18,NW,313,0.0,1.0,97,0.00,,,0.00,0,WeatherCatV1.11B39,2013-01-02 06:50:00,
2013-01-02 06:55:00,38.0,37.2,30.19,NW,313,1.0,1.0,97,0.00,,,0.00,0,WeatherCatV1.11B39,2013-01-02 06:55:00,
2013-01-02 07:00:00,38.0,37.2,30.19,NW,313,0.0,0.0,97,0.00,,,0.00,0,WeatherCatV1.11B39,2013-01-02 07:00:00,
2013-01-02 07:05:00,38.0,37.2,30.19,NW,313,2.0,3.0,97,0.00,,,0.00,0,WeatherCatV1.11B39,2013-01-02 07:05:00,
2013-01-02 07:10:00,38.1,37.3,30.19,NW,313,1.0,2.0,97,0.00,,,0.00,0,WeatherCatV1.11B39,2013-01-02 07:10:00,
2013-01-02 07:15:00,38.2,37.4,30.19,NW,313,0.0,1.0,97,0.00,,,0.00,0,WeatherCatV1.11B39,2013-01-02 07:15:00,
2013-01-02 07:20:00,38.3,37.5,30.20,NW,313,0.0,1.0,97,0.00,,,0.00,0,WeatherCatV1.11B39,2013-01-02 07:20:00,
2013-01-02 07:25:00,38.3,37.5,30.20,NW,313,1.0,1.0,97,0.00,,,0.00,0,WeatherCatV1.11B39,2013-01-02 07:25:00,
2013-01-02 07:30:00,38.4,37.6,30.20,NW,313,1.0,2.0,97,0.00,,,0.00,0,WeatherCatV1.11B39,2013-01-02 07:30:00,
2013-01-02 07:35:00,38.5,37.7,30.20,NW,313,0.0,1.0,97,0.00,,,0.00,0,WeatherCatV1.11B39,2013-01-02 07:35:00,
2013-01-02 07:40:00,38.6,37.8,30.20,NW,313,0.0,2.0,97,0.00,,,0.00,0,WeatherCatV1.11B39,2013-01-02 07:40:00,
2013-01-02 07:45:00,38.7,37.9,30.20,NW,313,2.0,3.0,97,0.00,,,0.00,0,WeatherCatV1.11B39,2013-01-02 07:45:00,
2013-01-02 07:50:00,38.9,38.1,30.20,NW,316,1.0,3.0,97,0.00,,,0.00,0,WeatherCatV1.11B39,2013-01-02 07:50:00,
2013-01-02 07:55:00,39.1,38.3,30.21,NW,316,1.0,3.0,97,0.00,,,0.00,0,WeatherCatV1.11B39,2013-01-02 07:55:00,
2013-01-02 08:00:00,39.2,38.4,30.21,NW,316,1.0,2.0,97,0.00,,,0.00,5,WeatherCatV1.11B39,2013-01-02 08:00:00,
2013-01-02 08:05:00,39.2,38.4,30.21,NW,316,0.0,1.0,97,0.00,,,0.00,9,WeatherCatV1.11B39,2013-01-02 08:05:00,
2013-01-02 08:10:00,39.3,38.5,30.21,NW,316,0.0,1.0,97,0.00,,,0.00,7,WeatherCatV1.11B39,2013-01-02 08:10:00,
2013-01-02 08:15:00,39.3,38.5,30.21,NW,316,0.0,1.0,97,0.00,,,0.00,7,WeatherCatV1.11B39,2013-01-02 08:15:00,
2013-01-02 08:20:00,39.4,38.6,30.22,NW,316,0.0,1.0,97,0.00,,,0.00,11,WeatherCatV1.11B39,2013-01-02 08:20:00,
2013-01-02 08:25:00,39.5,38.7,30.22,NW,316,0.0,1.0,97,0.00,,,0.00,12,WeatherCatV1.11B39,2013-01-02 08:25:00,
2013-01-02 08:30:00,39.6,38.8,30.22,NW,316,1.0,1.0,97,0.00,,,0.00,12,WeatherCatV1.11B39,2013-01-02 08:30:00,
2013-01-02 08:35:00,39.6,38.8,30.23,NW,316,0.0,1.0,97,0.00,,,0.00,11,WeatherCatV1.11B39,2013-01-02 08:35:00,
2013-01-02 08:40:00,39.7,38.9,30.22,NW,316,0.0,0.0,97,0.00,,,0.00,12,WeatherCatV1.11B39,2013-01-02 08:40:00,
2013-01-02 08:45:00,39.7,38.9,30.22,NW,316,0.0,1.0,97,0.00,,,0.00,14,WeatherCatV1.11B39,2013-01-02 08:45:00,
2013-01-02 08:50:00,39.9,39.1,30.22,NW,316,0.0,0.0,97,0.00,,,0.00,16,WeatherCatV1.11B39,2013-01-02 08:50:00,
2013-01-02 08:55:00,40.0,39.2,30.22,NW,316,0.0,0.0,97,0.00,,,0.00,16,WeatherCatV1.11B39,2013-01-02 08:55:00,
2013-01-02 09:00:00,40.2,39.4,30.23,NW,316,0.0,0.0,97,0.00,,,0.00,14,WeatherCatV1.11B39,2013-01-02 09:00:00,
2013-01-02 09:05:00,40.2,39.4,30.23,NW,316,0.0,0.0,97,0.00,,,0.00,12,WeatherCatV1.11B39,2013-01-02 09:05:00,
2013-01-02 09:10:00,40.3,39.5,30.23,NW,316,0.0,0.0,97,0.00,,,0.00,12,WeatherCatV1.11B39,2013-01-02 09:10:00,
2013-01-02 09:15:00,40.3,39.5,30.23,NW,316,0.0,0.0,97,0.00,,,0.00,14,WeatherCatV1.11B39,2013-01-02 09:15:00,
2013-01-02 09:20:00,40.3,39.5,30.23,NW,316,0.0,0.0,97,0.00,,,0.00,14,WeatherCatV1.11B39,2013-01-02 09:20:00,
2013-01-02 09:25:00,40.4,39.6,30.23,NW,316,0.0,0.0,97,0.00,,,0.00,18,WeatherCatV1.11B39,2013-01-02 09:25:00,
2013-01-02 09:30:00,40.5,39.7,30.23,NW,316,0.0,0.0,97,0.00,,,0.00,39,WeatherCatV1.11B39,2013-01-02 09:30:00,
2013-01-02 09:35:00,40.6,39.8,30.23,NW,316,0.0,2.0,97,0.00,,,0.00,58,WeatherCatV1.11B39,2013-01-02 09:35:00,
2013-01-02 09:40:00,40.7,39.9,30.23,NW,316,0.0,2.0,97,0.00,,,0.00,51,WeatherCatV1.11B39,2013-01-02 09:40:00,
2013-01-02 09:45:00,40.9,39.8,30.23,NW,320,1.0,3.0,96,0.00,,,0.00,37,WeatherCatV1.11B39,2013-01-02 09:45:00,
2013-01-02 09:50:00,41.1,40.3,30.24,NW,320,1.0,1.0,97,0.00,,,0.00,42,WeatherCatV1.11B39,2013-01-02 09:50:00,
2013-01-02 09:55:00,41.2,40.1,30.24,NW,320,0.0,2.0,96,0.00,,,0.00,51,WeatherCatV1.11B39,2013-01-02 09:55:00,
2013-01-02 10:00:00,41.4,40.3,30.23,NW,321,1.0,2.0,96,0.00,,,0.00,54,WeatherCatV1.11B39,2013-01-02 10:00:00,
2013-01-02 10:05:00,41.5,40.4,30.24,NW,321,3.0,3.0,96,0.00,,,0.00,58,WeatherCatV1.11B39,2013-01-02 10:05:00,
2013-01-02 10:10:00,41.7,40.6,30.24,NW,321,0.0,3.0,96,0.00,,,0.00,58,WeatherCatV1.11B39,2013-01-02 10:10:00,
2013-01-02 10:15:00,41.8,40.7,30.23,NW,321,1.0,2.0,96,0.00,,,0.00,98,WeatherCatV1.11B39,2013-01-02 10:15:00,
2013-01-02 10:20:00,42.0,40.9,30.24,NW,321,0.0,2.0,96,0.00,,,0.00,104,WeatherCatV1.11B39,2013-01-02 10:20:00,
2013-01-02 10:25:00,42.2,41.1,30.24,NW,321,2.0,2.0,96,0.00,,,0.00,63,WeatherCatV1.11B39,2013-01-02 10:25:00,
2013-01-02 10:30:00,42.4,41.1,30.24,WNW,282,2.0,2.0,95,0.00,,,0.00,88,WeatherCatV1.11B39,2013-01-02 10:30:00,
2013-01-02 10:35:00,42.6,41.3,30.24,NW,312,3.0,3.0,95,0.00,,,0.00,72,WeatherCatV1.11B39,2013-01-02 10:35:00,
2013-01-02 10:40:00,42.7,41.4,30.24,NW,314,1.0,5.0,95,0.00,,,0.00,39,WeatherCatV1.11B39,2013-01-02 10:40:00,
2013-01-02 10:45:00,42.8,41.2,30.23,NW,310,0.0,4.0,94,0.00,,,0.00,54,WeatherCatV1.11B39,2013-01-02 10:45:00,
2013-01-02 10:50:00,42.9,41.3,30.24,NW,311,2.0,4.0,94,0.00,,,0.00,67,WeatherCatV1.11B39,2013-01-02 10:50:00,
2013-01-02 10:55:00,43.0,41.4,30.23,NNW,331,4.0,5.0,94,0.00,,,0.00,62,WeatherCatV1.11B39,2013-01-02 10:55:00,
2013-01-02 11:00:00,43.2,41.3,30.23,WNW,300,2.0,6.0,93,0.00,,,0.00,58,WeatherCatV1.11B39,2013-01-02 11:00:00,
2013-01-02 11:05:00,43.3,41.4,30.24,WSW,250,2.0,2.0,93,0.00,,,0.00,44,WeatherCatV1.11B39,2013-01-02 11:05:00,
2013-01-02 11:10:00,43.4,41.5,30.24,WNW,291,2.0,3.0,93,0.00,,,0.00,42,WeatherCatV1.11B39,2013-01-02 11:10:00,
2013-01-02 11:15:00,43.5,41.3,30.24,WNW,298,2.0,3.0,92,0.00,,,0.00,35,WeatherCatV1.11B39,2013-01-02 11:15:00,
2013-01-02 11:20:00,43.5,41.3,30.25,WNW,303,2.0,5.0,92,0.00,,,0.00,47,WeatherCatV1.11B39,2013-01-02 11:20:00,
2013-01-02 11:25:00,43.6,41.4,30.24,NW,309,1.0,4.0,92,0.00,,,0.00,44,WeatherCatV1.11B39,2013-01-02 11:25:00,
2013-01-02 11:30:00,43.7,41.5,30.24,NW,307,3.0,5.0,92,0.00,,,0.00,49,WeatherCatV1.11B39,2013-01-02 11:30:00,
2013-01-02 11:35:00,43.8,41.6,30.24,NW,308,2.0,5.0,92,0.00,,,0.00,74,WeatherCatV1.11B39,2013-01-02 11:35:00,
2013-01-02 11:40:00,43.8,41.6,30.24,NW,315,0.0,3.0,92,0.00,,,0.00,79,WeatherCatV1.11B39,2013-01-02 11:40:00,
2013-01-02 11:45:00,44.0,41.8,30.23,NW,314,0.0,3.0,92,0.00,,,0.00,104,WeatherCatV1.11B39,2013-01-02 11:45:00,
2013-01-02 11:50:00,44.1,41.9,30.23,NW,321,0.0,5.0,92,0.00,,,0.00,53,WeatherCatV1.11B39,2013-01-02 11:50:00,
2013-01-02 11:55:00,44.2,41.7,30.23,NW,304,2.0,2.0,91,0.00,,,0.00,33,WeatherCatV1.11B39,2013-01-02 11:55:00,
2013-01-02 12:00:00,44.3,42.1,30.23,NW,315,0.0,2.0,92,0.00,,,0.00,67,WeatherCatV1.11B39,2013-01-02 12:00:00,
2013-01-02 12:05:00,44.3,42.1,30.23,West,259,6.0,6.0,92,0.00,,,0.00,54,WeatherCatV1.11B39,2013-01-02 12:05:00,
2013-01-02 12:10:00,44.5,42.3,30.23,NW,311,2.0,5.0,92,0.00,,,0.00,63,WeatherCatV1.11B39,2013-01-02 12:10:00,
2013-01-02 12:15:00,44.6,42.4,30.23,WNW,302,2.0,5.0,92,0.00,,,0.00,69,WeatherCatV1.11B39,2013-01-02 12:15:00,
2013-01-02 12:20:00,44.7,42.5,30.23,West,281,5.0,5.0,92,0.00,,,0.00,62,WeatherCatV1.11B39,2013-01-02 12:20:00,
2013-01-02 12:25:00,44.7,42.5,30.23,WNW,301,1.0,9.0,92,0.00,,,0.00,53,WeatherCatV1.11B39,2013-01-02 12:25:00,
2013-01-02 12:30:00,44.6,42.4,30.23,WNW,286,2.0,5.0,92,0.00,,,0.00,30,WeatherCatV1.11B39,2013-01-02 12:30:00,
2013-01-02 12:35:00,44.6,42.4,30.23,WNW,294,4.0,6.0,92,0.00,,,0.00,26,WeatherCatV1.11B39,2013-01-02 12:35:00,
2013-01-02 12:40:00,44.5,42.6,30.23,NW,315,3.0,3.0,93,0.00,,,0.00,35,WeatherCatV1.11B39,2013-01-02 12:40:00,
2013-01-02 12:45:00,44.5,42.9,30.23,WNW,301,4.0,4.0,94,0.00,,,0.00,46,WeatherCatV1.11B39,2013-01-02 12:45:00,
2013-01-02 12:50:00,44.5,42.9,30.23,NNW,338,2.0,6.0,94,0.00,,,0.00,46,WeatherCatV1.11B39,2013-01-02 12:50:00,
2013-01-02 12:55:00,44.5,42.9,30.23,NW,319,2.0,5.0,94,0.00,,,0.00,32,WeatherCatV1.11B39,2013-01-02 12:55:00,
2013-01-02 13:00:00,44.6,43.3,30.23,NW,309,0.0,5.0,95,0.00,,,0.00,37,WeatherCatV1.11B39,2013-01-02 13:00:00,
2013-01-02 13:05:00,44.7,43.4,30.23,NW,315,1.0,1.0,95,0.00,,,0.00,30,WeatherCatV1.11B39,2013-01-02 13:05:00,
2013-01-02 13:10:00,44.8,43.5,30.23,NW,316,5.0,5.0,95,0.00,,,0.00,37,WeatherCatV1.11B39,2013-01-02 13:10:00,
2013-01-02 13:15:00,44.9,43.6,30.22,WNW,288,0.0,3.0,95,0.00,,,0.00,30,WeatherCatV1.11B39,2013-01-02 13:15:00,
2013-01-02 13:20:00,45.0,43.9,30.22,NW,311,3.0,5.0,96,0.00,,,0.00,32,WeatherCatV1.11B39,2013-01-02 13:20:00,
2013-01-02 13:25:00,45.1,44.0,30.22,WNW,298,2.0,3.0,96,0.00,,,0.00,33,WeatherCatV1.11B39,2013-01-02 13:25:00,
2013-01-02 13:30:00,45.2,44.1,30.22,WNW,303,2.0,4.0,96,0.00,,,0.00,39,WeatherCatV1.11B39,2013-01-02 13:30:00,
2013-01-02 13:35:00,45.3,44.2,30.22,WNW,294,7.0,8.0,96,0.00,,,0.00,19,WeatherCatV1.11B39,2013-01-02 13:35:00,
2013-01-02 13:40:00,45.4,44.3,30.22,NNW,331,5.0,6.0,96,0.00,,,0.00,14,WeatherCatV1.11B39,2013-01-02 13:40:00,
2013-01-02 13:45:00,45.5,44.4,30.22,NW,310,2.0,5.0,96,0.00,,,0.00,14,WeatherCatV1.11B39,2013-01-02 13:45:00,
2013-01-02 13:50:00,45.5,44.4,30.22,WNW,290,5.0,5.0,96,0.00,,,0.00,21,WeatherCatV1.11B39,2013-01-02 13:50:00,
2013-01-02 13:55:00,45.6,44.5,30.23,NW,305,4.0,6.0,96,0.00,,,0.00,16,WeatherCatV1.11B39,2013-01-02 13:55:00,
2013-01-02 14:00:00,45.6,44.5,30.23,West,276,5.0,5.0,96,0.00,,,0.00,18,WeatherCatV1.11B39,2013-01-02 14:00:00,
2013-01-02 14:05:00,45.7,44.6,30.23,NW,325,1.0,5.0,96,0.00,,,0.00,16,WeatherCatV1.11B39,2013-01-02 14:05:00,
2013-01-02 14:10:00,45.7,44.6,30.22,NW,321,2.0,3.0,96,0.00,,,0.00,21,WeatherCatV1.11B39,2013-01-02 14:10:00,
2013-01-02 14:15:00,45.8,45.0,30.22,WNW,297,4.0,6.0,97,0.00,,,0.00,19,WeatherCatV1.11B39,2013-01-02 14:15:00,
2013-01-02 14:20:00,45.9,45.1,30.22,NW,310,2.0,3.0,97,0.00,,,0.00,19,WeatherCatV1.11B39,2013-01-02 14:20:00,
2013-01-02 14:25:00,45.9,45.1,30.22,NW,311,4.0,5.0,97,0.00,,,0.00,19,WeatherCatV1.11B39,2013-01-02 14:25:00,
2013-01-02 14:30:00,46.0,45.2,30.22,NNW,335,3.0,5.0,97,0.00,,,0.01,19,WeatherCatV1.11B39,2013-01-02 14:30:00,
2013-01-02 14:35:00,46.0,45.2,30.22,NW,309,2.0,6.0,97,0.00,,,0.01,23,WeatherCatV1.11B39,2013-01-02 14:35:00,
2013-01-02 14:40:00,46.0,45.2,30.22,NW,326,1.0,6.0,97,0.00,,,0.01,26,WeatherCatV1.11B39,2013-01-02 14:40:00,
2013-01-02 14:45:00,46.1,45.3,30.22,NW,305,1.0,4.0,97,0.00,,,0.01,14,WeatherCatV1.11B39,2013-01-02 14:45:00,
2013-01-02 14:50:00,46.1,45.3,30.22,NW,325,0.0,5.0,97,0.00,,,0.01,14,WeatherCatV1.11B39,2013-01-02 14:50:00,
2013-01-02 14:55:00,46.1,45.3,30.22,NW,314,4.0,4.0,97,0.00,,,0.01,9,WeatherCatV1.11B39,2013-01-02 14:55:00,
2013-01-02 15:00:00,46.1,45.3,30.22,West,263,2.0,4.0,97,0.00,,,0.01,9,WeatherCatV1.11B39,2013-01-02 15:00:00,
2013-01-02 15:05:00,46.1,45.3,30.22,NW,309,0.0,4.0,97,0.00,,,0.01,7,WeatherCatV1.11B39,2013-01-02 15:05:00,
2013-01-02 15:10:00,46.1,45.6,30.23,WNW,300,1.0,3.0,98,0.00,,,0.01,7,WeatherCatV1.11B39,2013-01-02 15:10:00,
2013-01-02 15:15:00,46.2,45.7,30.23,NW,304,3.0,3.0,98,0.00,,,0.01,5,WeatherCatV1.11B39,2013-01-02 15:15:00,
2013-01-02 15:20:00,46.2,45.7,30.23,WNW,296,3.0,5.0,98,0.00,,,0.01,5,WeatherCatV1.11B39,2013-01-02 15:20:00,
2013-01-02 15:25:00,46.3,45.8,30.23,North,355,1.0,4.0,98,0.00,,,0.01,7,WeatherCatV1.11B39,2013-01-02 15:25:00,
2013-01-02 15:30:00,46.3,45.8,30.22,NW,308,5.0,7.0,98,0.00,,,0.01,7,WeatherCatV1.11B39,2013-01-02 15:30:00,
2013-01-02 15:35:00,46.3,45.8,30.22,WNW,293,1.0,2.0,98,0.00,,,0.01,0,WeatherCatV1.11B39,2013-01-02 15:35:00,
2013-01-02 15:40:00,46.3,45.8,30.22,NW,317,3.0,4.0,98,0.00,,,0.01,0,WeatherCatV1.11B39,2013-01-02 15:40:00,
2013-01-02 15:45:00,46.4,45.9,30.23,NW,309,0.0,2.0,98,0.00,,,0.01,0,WeatherCatV1.11B39,2013-01-02 15:45:00,
2013-01-02 15:50:00,46.4,45.9,30.22,NW,314,0.0,3.0,98,0.00,,,0.01,0,WeatherCatV1.11B39,2013-01-02 15:50:00,
2013-01-02 15:55:00,46.5,46.0,30.23,WNW,295,2.0,2.0,98,0.00,,,0.01,0,WeatherCatV1.11B39,2013-01-02 15:55:00,
2013-01-02 16:00:00,46.5,46.0,30.23,NW,315,2.0,3.0,98,0.00,,,0.01,0,WeatherCatV1.11B39,2013-01-02 16:00:00,
2013-01-02 16:05:00,46.6,46.1,30.23,NW,317,4.0,6.0,98,0.00,,,0.01,0,WeatherCatV1.11B39,2013-01-02 16:05:00,
2013-01-02 16:10:00,46.7,46.2,30.22,NW,317,1.0,5.0,98,0.00,,,0.01,0,WeatherCatV1.11B39,2013-01-02 16:10:00,
2013-01-02 16:15:00,46.8,46.3,30.23,WNW,294,2.0,6.0,98,0.00,,,0.01,0,WeatherCatV1.11B39,2013-01-02 16:15:00,
2013-01-02 16:20:00,46.9,46.4,30.22,NW,304,2.0,4.0,98,0.00,,,0.01,0,WeatherCatV1.11B39,2013-01-02 16:20:00,
2013-01-02 16:25:00,47.0,46.5,30.22,NW,309,4.0,6.0,98,0.00,,,0.01,0,WeatherCatV1.11B39,2013-01-02 16:25:00,
2013-01-02 16:30:00,47.1,46.6,30.22,WNW,283,4.0,7.0,98,0.00,,,0.01,0,WeatherCatV1.11B39,2013-01-02 16:30:00,
2013-01-02 16:35:00,47.2,46.7,30.22,NW,319,3.0,6.0,98,0.00,,,0.01,0,WeatherCatV1.11B39,2013-01-02 16:35:00,
2013-01-02 16:40:00,47.3,46.8,30.22,NW,323,4.0,4.0,98,0.00,,,0.01,0,WeatherCatV1.11B39,2013-01-02 16:40:00,
2013-01-02 16:45:00,47.4,46.9,30.22,WNW,293,8.0,8.0,98,0.00,,,0.01,0,WeatherCatV1.11B39,2013-01-02 16:45:00,
2013-01-02 16:50:00,47.6,47.1,30.22,NW,319,2.0,7.0,98,0.00,,,0.01,0,WeatherCatV1.11B39,2013-01-02 16:50:00,
2013-01-02 16:55:00,47.6,47.1,30.22,NW,318,4.0,6.0,98,0.00,,,0.01,0,WeatherCatV1.11B39,2013-01-02 16:55:00,
2013-01-02 17:00:00,47.7,47.2,30.22,NW,314,4.0,4.0,98,0.00,,,0.01,0,WeatherCatV1.11B39,2013-01-02 17:00:00,
2013-01-02 17:05:00,47.7,47.2,30.22,WNW,294,2.0,4.0,98,0.00,,,0.01,0,WeatherCatV1.11B39,2013-01-02 17:05:00,
2013-01-02 17:10:00,47.8,47.3,30.22,WNW,297,4.0,6.0,98,0.00,,,0.01,0,WeatherCatV1.11B39,2013-01-02 17:10:00,
2013-01-02 17:15:00,47.8,47.3,30.22,WNW,302,1.0,4.0,98,0.00,,,0.01,0,WeatherCatV1.11B39,2013-01-02 17:15:00,
2013-01-02 17:20:00,47.9,47.4,30.22,NW,311,4.0,4.0,98,0.00,,,0.01,0,WeatherCatV1.11B39,2013-01-02 17:20:00,
2013-01-02 17:25:00,47.9,47.4,30.22,NW,319,3.0,7.0,98,0.00,,,0.01,0,WeatherCatV1.11B39,2013-01-02 17:25:00,
2013-01-02 17:30:00,48.0,47.5,30.22,WNW,298,2.0,8.0,98,0.00,,,0.01,0,WeatherCatV1.11B39,2013-01-02 17:30:00,
2013-01-02 17:35:00,48.1,47.6,30.22,NW,326,5.0,8.0,98,0.00,,,0.01,0,WeatherCatV1.11B39,2013-01-02 17:35:00,
2013-01-02 17:40:00,48.2,47.7,30.22,NW,304,4.0,9.0,98,0.00,,,0.01,0,WeatherCatV1.11B39,2013-01-02 17:40:00,
2013-01-02 17:45:00,48.3,47.8,30.22,NW,316,4.0,6.0,98,0.00,,,0.01,0,WeatherCatV1.11B39,2013-01-02 17:45:00,
2013-01-02 17:50:00,48.4,47.9,30.22,NNW,332,2.0,6.0,98,0.00,,,0.01,0,WeatherCatV1.11B39,2013-01-02 17:50:00,
2013-01-02 17:55:00,48.4,47.9,30.22,WNW,303,5.0,7.0,98,0.00,,,0.01,0,WeatherCatV1.11B39,2013-01-02 17:55:00,
2013-01-02 18:00:00,48.5,48.0,30.22,South,173,3.0,6.0,98,0.00,,,0.01,0,WeatherCatV1.11B39,2013-01-02 18:00:00,
2013-01-02 18:05:00,48.6,48.1,30.23,NW,316,4.0,6.0,98,0.00,,,0.01,0,WeatherCatV1.11B39,2013-01-02 18:05:00,
2013-01-02 18:10:00,48.6,48.1,30.23,NNW,329,3.0,5.0,98,0.00,,,0.01,0,WeatherCatV1.11B39,2013-01-02 18:10:00,
2013-01-02 18:15:00,48.7,48.2,30.22,NW,319,3.0,5.0,98,0.00,,,0.01,0,WeatherCatV1.11B39,2013-01-02 18:15:00,
2013-01-02 18:20:00,48.7,48.2,30.23,NW,319,5.0,5.0,98,0.00,,,0.01,0,WeatherCatV1.11B39,2013-01-02 18:20:00,
2013-01-02 18:25:00,48.8,48.3,30.23,WNW,288,5.0,7.0,98,0.00,,,0.01,0,WeatherCatV1.11B39,2013-01-02 18:25:00,
2013-01-02 18:30:00,48.9,48.4,30.23,NW,307,5.0,5.0,98,0.00,,,0.01,0,WeatherCatV1.11B39,2013-01-02 18:30:00,
2013-01-02 18:35:00,49.0,48.5,30.23,NW,306,3.0,7.0,98,0.00,,,0.01,0,WeatherCatV1.11B39,2013-01-02 18:35:00,
2013-01-02 18:40:00,49.1,48.6,30.24,NW,316,5.0,7.0,98,0.00,,,0.01,0,WeatherCatV1.11B39,2013-01-02 18:40:00,
2013-01-02 18:45:00,49.2,48.7,30.24,NW,311,3.0,6.0,98,0.00,,,0.01,0,WeatherCatV1.11B39,2013-01-02 18:45:00,
2013-01-02 18:50:00,49.2,48.7,30.24,NW,325,4.0,7.0,98,0.00,,,0.01,0,WeatherCatV1.11B39,2013-01-02 18:50:00,
2013-01-02 18:55:00,49.2,48.7,30.24,NW,324,4.0,7.0,98,0.00,,,0.01,0,WeatherCatV1.11B39,2013-01-02 18:55:00,
2013-01-02 19:00:00,49.2,48.7,30.24,WNW,302,2.0,6.0,98,0.00,,,0.01,0,WeatherCatV1.11B39,2013-01-02 19:00:00,
2013-01-02 19:05:00,49.3,48.8,30.24,WNW,300,3.0,4.0,98,0.00,,,0.01,0,WeatherCatV1.11B39,2013-01-02 19:05:00,
2013-01-02 19:10:00,49.4,48.9,30.24,WNW,303,3.0,5.0,98,0.00,,,0.01,0,WeatherCatV1.11B39,2013-01-02 19:10:00,
2013-01-02 19:15:00,49.5,49.0,30.24,NW,320,6.0,6.0,98,0.00,,,0.01,0,WeatherCatV1.11B39,2013-01-02 19:15:00,
2013-01-02 19:20:00,49.6,49.1,30.24,WNW,298,4.0,7.0,98,0.00,,,0.01,0,WeatherCatV1.11B39,2013-01-02 19:20:00,
2013-01-02 19:25:00,49.7,49.2,30.24,NW,317,3.0,7.0,98,0.00,,,0.01,0,WeatherCatV1.11B39,2013-01-02 19:25:00,
2013-01-02 19:30:00,49.7,49.2,30.24,NNW,327,4.0,5.0,98,0.00,,,0.01,0,WeatherCatV1.11B39,2013-01-02 19:30:00,
2013-01-02 19:35:00,49.8,49.3,30.24,NNW,328,3.0,7.0,98,0.00,,,0.01,0,WeatherCatV1.11B39,2013-01-02 19:35:00,
2013-01-02 19:40:00,49.9,49.4,30.24,NW,317,3.0,8.0,98,0.00,,,0.01,0,WeatherCatV1.11B39,2013-01-02 19:40:00,
2013-01-02 19:45:00,50.0,49.5,30.25,NW,324,2.0,6.0,98,0.00,,,0.01,0,WeatherCatV1.11B39,2013-01-02 19:45:00,
2013-01-02 19:50:00,50.0,49.5,30.25,NW,321,5.0,6.0,98,0.00,,,0.01,0,WeatherCatV1.11B39,2013-01-02 19:50:00,
2013-01-02 19:55:00,50.1,49.6,30.25,NNW,328,3.0,5.0,98,0.00,,,0.01,0,WeatherCatV1.11B39,2013-01-02 19:55:00,
2013-01-02 20:00:00,50.1,49.6,30.25,SW,227,3.0,5.0,98,0.00,,,0.01,0,WeatherCatV1.11B39,2013-01-02 20:00:00,
2013-01-02 20:05:00,50.1,49.6,30.25,NW,318,3.0,6.0,98,0.00,,,0.01,0,WeatherCatV1.11B39,2013-01-02 20:05:00,
2013-01-02 20:10:00,50.2,49.7,30.25,NW,312,4.0,6.0,98,0.00,,,0.01,0,WeatherCatV1.11B39,2013-01-02 20:10:00,
2013-01-02 20:15:00,50.2,49.7,30.26,NW,317,3.0,4.0,98,0.00,,,0.01,0,WeatherCatV1.11B39,2013-01-02 20:15:00,
2013-01-02 20:20:00,50.3,49.8,30.26,WNW,293,6.0,6.0,98,0.00,,,0.01,0,WeatherCatV1.11B39,2013-01-02 20:20:00,
2013-01-02 20:25:00,50.3,49.8,30.26,NW,317,3.0,4.0,98,0.00,,,0.01,0,WeatherCatV1.11B39,2013-01-02 20:25:00,
2013-01-02 20:30:00,50.3,49.8,30.26,NW,321,2.0,6.0,98,0.00,,,0.01,0,WeatherCatV1.11B39,2013-01-02 20:30:00,
2013-01-02 20:35:00,50.3,49.8,30.26,WNW,302,4.0,5.0,98,0.00,,,0.01,0,WeatherCatV1.11B39,2013-01-02 20:35:00,
2013-01-02 20:40:00,50.3,49.8,30.26,WNW,299,2.0,5.0,98,0.00,,,0.01,0,WeatherCatV1.11B39,2013-01-02 20:40:00,
2013-01-02 20:45:00,50.3,49.8,30.27,NW,318,3.0,4.0,98,0.00,,,0.01,0,WeatherCatV1.11B39,2013-01-02 20:45:00,
2013-01-02 20:50:00,50.4,49.9,30.27,NW,323,1.0,4.0,98,0.00,,,0.01,0,WeatherCatV1.11B39,2013-01-02 20:50:00,
2013-01-02 20:55:00,50.4,49.9,30.27,NW,311,3.0,4.0,98,0.00,,,0.01,0,WeatherCatV1.11B39,2013-01-02 20:55:00,
2013-01-02 21:00:00,50.5,50.0,30.27,NW,320,2.0,6.0,98,0.00,,,0.01,0,WeatherCatV1.11B39,2013-01-02 21:00:00,
2013-01-02 21:05:00,50.4,49.9,30.27,NW,317,5.0,5.0,98,0.00,,,0.01,0,WeatherCatV1.11B39,2013-01-02 21:05:00,
2013-01-02 21:10:00,50.5,50.0,30.27,NNW,330,4.0,7.0,98,0.00,,,0.01,0,WeatherCatV1.11B39,2013-01-02 21:10:00,
2013-01-02 21:15:00,50.6,50.1,30.28,NW,307,2.0,6.0,98,0.00,,,0.01,0,WeatherCatV1.11B39,2013-01-02 21:15:00,
2013-01-02 21:20:00,50.6,50.1,30.28,NW,304,5.0,5.0,98,0.00,,,0.01,0,WeatherCatV1.11B39,2013-01-02 21:20:00,
2013-01-02 21:25:00,50.6,50.1,30.28,NW,311,3.0,7.0,98,0.00,,,0.01,0,WeatherCatV1.11B39,2013-01-02 21:25:00,
2013-01-02 21:30:00,50.6,50.1,30.28,NW,311,3.0,6.0,98,0.00,,,0.01,0,WeatherCatV1.11B39,2013-01-02 21:30:00,
2013-01-02 21:35:00,50.7,50.2,30.28,NW,312,3.0,8.0,98,0.00,,,0.01,0,WeatherCatV1.11B39,2013-01-02 21:35:00,
2013-01-02 21:40:00,50.7,50.2,30.28,NW,312,3.0,6.0,98,0.00,,,0.01,0,WeatherCatV1.11B39,2013-01-02 21:40:00,
2013-01-02 21:45:00,50.7,50.2,30.28,NW,311,3.0,7.0,98,0.00,,,0.01,0,WeatherCatV1.11B39,2013-01-02 21:45:00,
2013-01-02 21:50:00,50.7,50.2,30.27,North,355,1.0,6.0,98,0.00,,,0.01,0,WeatherCatV1.11B39,2013-01-02 21:50:00,
2013-01-02 21:55:00,50.8,50.3,30.28,NW,308,5.0,7.0,98,0.00,,,0.01,0,WeatherCatV1.11B39,2013-01-02 21:55:00,
2013-01-02 22:00:00,50.8,50.3,30.28,NW,323,1.0,3.0,98,0.00,,,0.01,0,WeatherCatV1.11B39,2013-01-02 22:00:00,
2013-01-02 22:05:00,50.8,50.0,30.27,NW,317,2.0,4.0,97,0.00,,,0.01,0,WeatherCatV1.11B39,2013-01-02 22:05:00,
2013-01-02 22:10:00,50.8,50.0,30.28,NW,307,2.0,3.0,97,0.00,,,0.01,0,WeatherCatV1.11B39,2013-01-02 22:10:00,
2013-01-02 22:15:00,50.7,49.9,30.28,WNW,303,2.0,6.0,97,0.00,,,0.01,0,WeatherCatV1.11B39,2013-01-02 22:15:00,
2013-01-02 22:20:00,50.7,49.9,30.28,North,355,3.0,9.0,97,0.00,,,0.01,0,WeatherCatV1.11B39,2013-01-02 22:20:00,
2013-01-02 22:25:00,50.8,50.0,30.29,NW,319,7.0,8.0,97,0.00,,,0.01,0,WeatherCatV1.11B39,2013-01-02 22:25:00,
2013-01-02 22:30:00,50.7,49.9,30.28,NW,304,3.0,7.0,97,0.00,,,0.01,0,WeatherCatV1.11B39,2013-01-02 22:30:00,
2013-01-02 22:35:00,50.7,49.9,30.29,WNW,302,5.0,8.0,97,0.00,,,0.01,0,WeatherCatV1.11B39,2013-01-02 22:35:00,
2013-01-02 22:40:00,50.7,49.9,30.29,NW,309,4.0,7.0,97,0.00,,,0.01,0,WeatherCatV1.11B39,2013-01-02 22:40:00,
2013-01-02 22:45:00,50.7,49.9,30.29,NW,308,4.0,7.0,97,0.00,,,0.01,0,WeatherCatV1.11B39,2013-01-02 22:45:00,
2013-01-02 22:50:00,50.6,49.8,30.29,NNW,333,4.0,6.0,97,0.00,,,0.01,0,WeatherCatV1.11B39,2013-01-02 22:50:00,
2013-01-02 22:55:00,50.6,49.8,30.29,NW,325,4.0,6.0,97,0.00,,,0.01,0,WeatherCatV1.11B39,2013-01-02 22:55:00,
2013-01-02 23:00:00,50.5,49.7,30.30,WNW,303,4.0,7.0,97,0.00,,,0.01,0,WeatherCatV1.11B39,2013-01-02 23:00:00,
2013-01-02 23:05:00,50.5,49.7,30.30,NW,306,5.0,5.0,97,0.00,,,0.01,0,WeatherCatV1.11B39,2013-01-02 23:05:00,
2013-01-02 23:10:00,50.5,49.7,30.30,NW,314,4.0,7.0,97,0.00,,,0.01,0,WeatherCatV1.11B39,2013-01-02 23:10:00,
2013-01-02 23:15:00,50.5,49.7,30.31,NW,306,4.0,6.0,97,0.00,,,0.01,0,WeatherCatV1.11B39,2013-01-02 23:15:00,
2013-01-02 23:20:00,50.5,49.7,30.31,NW,311,3.0,5.0,97,0.00,,,0.01,0,WeatherCatV1.11B39,2013-01-02 23:20:00,
2013-01-02 23:25:00,50.5,49.7,30.31,NW,317,3.0,8.0,97,0.00,,,0.01,0,WeatherCatV1.11B39,2013-01-02 23:25:00,
2013-01-02 23:30:00,50.6,49.8,30.31,NW,317,4.0,6.0,97,0.00,,,0.01,0,WeatherCatV1.11B39,2013-01-02 23:30:00,
2013-01-02 23:35:00,50.6,49.8,30.31,NW,325,2.0,6.0,97,0.00,,,0.01,0,WeatherCatV1.11B39,2013-01-02 23:35:00,
2013-01-02 23:40:00,50.6,49.8,30.31,NW,311,4.0,7.0,97,0.00,,,0.01,0,WeatherCatV1.11B39,2013-01-02 23:40:00,
2013-01-02 23:45:00,50.6,49.8,30.31,NW,309,7.0,8.0,97,0.00,,,0.01,0,WeatherCatV1.11B39,2013-01-02 23:45:00,
2013-01-02 23:50:00,50.7,49.9,30.32,NW,308,5.0,7.0,97,0.00,,,0.01,0,WeatherCatV1.11B39,2013-01-02 23:50:00,
2013-01-02 23:55:00,50.7,49.9,30.32,NW,317,4.0,6.0,97,0.00,,,0.01,0,WeatherCatV1.11B39,2013-01-02 23:55:00,